Time;durP1;ratioP1;P1;durP2;ratioP2;P2;SDS_P1;SDS_P2;PMS_P1;PMS_P2;Temp;Humidity;BMP_temperature;BMP_pressure;BME280_temperature;BME280_humidity;BME280_pressure;Samples;Min_cycle;Max_cycle;Signal;HPM_P1;HPM_P2
2023/03/06 00:02:18;;;;;;;17.98;10.10;;;5.20;60.60;;;;;;5067547;28;20033;-63
2023/03/06 00:04:43;;;;;;;16.48;9.30;;;5.20;60.50;;;;;;5064252;28;20029;-62
2023/03/06 00:07:09;;;;;;;19.55;9.77;;;5.20;60.60;;;;;;5068450;28;20068;-63
2023/03/06 00:09:35;;;;;;;20.77;9.90;;;5.20;60.70;;;;;;5059550;28;20093;-63
2023/03/06 00:12:00;;;;;;;16.65;8.82;;;5.20;60.70;;;;;;5061946;28;20024;-63
2023/03/06 00:14:26;;;;;;;23.45;9.82;;;5.20;60.70;;;;;;5062770;28;20519;-63
2023/03/06 00:16:55;;;;;;;21.45;9.50;;;5.20;60.70;;;;;;5068256;28;20531;-63
2023/03/06 00:19:22;;;;;;;22.60;10.55;;;5.20;60.60;;;;;;5064470;28;20025;-62
2023/03/06 00:21:47;;;;;;;16.73;8.73;;;5.20;60.50;;;;;;5061712;28;20102;-62
2023/03/06 00:24:13;;;;;;;17.23;8.98;;;5.20;60.50;;;;;;5065466;28;20475;-62
2023/03/06 00:26:40;;;;;;;16.10;8.80;;;5.20;60.50;;;;;;5066641;28;20028;-62
2023/03/06 00:29:06;;;;;;;18.00;9.25;;;5.10;60.50;;;;;;5066715;28;20352;-62
2023/03/06 00:31:33;;;;;;;19.95;9.45;;;5.10;60.60;;;;;;5069289;28;20467;-62
2023/03/06 00:33:59;;;;;;;17.27;9.32;;;5.10;60.60;;;;;;5063667;28;20158;-62
2023/03/06 00:36:24;;;;;;;19.60;9.70;;;5.10;60.70;;;;;;5070348;28;20459;-62
2023/03/06 00:38:50;;;;;;;16.90;9.10;;;5.10;60.70;;;;;;5069901;28;20475;-62
2023/03/06 00:41:15;;;;;;;18.23;9.63;;;5.10;60.70;;;;;;5062369;28;20028;-62
2023/03/06 00:43:41;;;;;;;18.10;9.98;;;5.10;60.70;;;;;;5059923;28;20013;-62
2023/03/06 00:46:07;;;;;;;20.73;9.85;;;5.10;61.00;;;;;;5058392;28;20037;-63
2023/03/06 00:48:33;;;;;;;15.80;9.27;;;5.10;60.80;;;;;;5062988;28;20025;-62
2023/03/06 00:50:59;;;;;;;20.40;9.98;;;5.10;60.80;;;;;;5064616;28;20029;-62
2023/03/06 00:53:25;;;;;;;16.42;8.85;;;5.10;60.80;;;;;;5063620;28;21713;-62
2023/03/06 00:55:51;;;;;;;18.17;9.95;;;5.20;60.80;;;;;;5059777;28;20029;-64
2023/03/06 00:58:17;;;;;;;23.13;10.95;;;5.10;60.80;;;;;;5061878;28;20491;-63
2023/03/06 01:00:43;;;;;;;22.30;10.70;;;5.20;60.90;;;;;;5064949;28;20028;-62
2023/03/06 01:03:09;;;;;;;18.13;9.82;;;5.20;60.90;;;;;;5059934;28;20025;-62
2023/03/06 01:05:38;;;;;;;18.33;9.98;;;5.20;60.90;;;;;;5067216;28;20033;-63
2023/03/06 01:08:05;;;;;;;17.17;9.73;;;5.20;60.90;;;;;;5061866;28;20047;-62
2023/03/06 01:10:31;;;;;;;19.63;10.90;;;5.20;60.90;;;;;;5064395;28;20035;-63
2023/03/06 01:12:56;;;;;;;18.52;9.98;;;5.20;60.90;;;;;;5065303;28;20136;-63
2023/03/06 01:15:22;;;;;;;24.95;11.55;;;5.20;60.90;;;;;;5060716;28;20042;-63
2023/03/06 01:17:52;;;;;;;22.88;10.70;;;5.20;60.90;;;;;;5058405;28;20028;-63
2023/03/06 01:20:18;;;;;;;22.38;10.00;;;5.20;61.00;;;;;;5065743;28;20020;-63
2023/03/06 01:22:43;;;;;;;19.52;10.55;;;5.20;61.00;;;;;;5064710;28;20518;-63
2023/03/06 01:25:10;;;;;;;19.08;10.15;;;5.20;61.00;;;;;;5056181;28;20012;-63
2023/03/06 01:27:35;;;;;;;18.92;9.65;;;5.20;61.10;;;;;;5068225;28;20058;-62
2023/03/06 01:30:01;;;;;;;18.42;10.07;;;5.20;61.10;;;;;;5062228;28;20029;-62
2023/03/06 01:32:27;;;;;;;21.85;10.90;;;5.20;61.10;;;;;;5058572;28;20051;-63
2023/03/06 01:34:53;;;;;;;19.92;10.60;;;5.20;61.10;;;;;;5064148;28;20025;-64
2023/03/06 01:37:18;;;;;;;24.77;10.93;;;5.20;61.20;;;;;;5063895;28;20119;-63
2023/03/06 01:39:44;;;;;;;24.02;10.63;;;5.20;61.30;;;;;;5068255;28;20514;-63
2023/03/06 01:42:10;;;;;;;19.52;10.15;;;5.20;61.20;;;;;;5064364;28;20391;-63
2023/03/06 01:44:35;;;;;;;18.73;9.88;;;5.30;61.20;;;;;;5074603;28;20037;-63
2023/03/06 01:47:01;;;;;;;17.98;9.38;;;5.20;61.20;;;;;;5064894;28;20029;-63
2023/03/06 01:49:30;;;;;;;18.75;10.52;;;5.20;61.30;;;;;;5075150;28;20033;-63
2023/03/06 01:52:06;;;;;;;20.48;10.07;;;5.20;61.40;;;;;;5057794;28;20345;-63
2023/03/06 01:54:38;;;;;;;23.20;10.73;;;5.20;61.50;;;;;;5056998;28;20045;-62
2023/03/06 01:57:17;;;;;;;21.52;11.07;;;5.20;61.40;;;;;;5070919;28;20036;-62
2023/03/06 01:59:44;;;;;;;23.55;9.93;;;5.20;61.50;;;;;;5060324;28;20090;-61
2023/03/06 02:02:11;;;;;;;18.83;11.43;;;5.20;61.50;;;;;;5059905;28;20029;-61
2023/03/06 02:04:38;;;;;;;19.48;10.82;;;5.20;61.50;;;;;;5055199;28;20418;-61
2023/03/06 02:07:05;;;;;;;22.52;11.90;;;5.20;61.60;;;;;;5061301;28;20033;-61
2023/03/06 02:09:33;;;;;;;26.58;10.35;;;5.20;61.50;;;;;;5062564;28;20058;-62
2023/03/06 02:11:59;;;;;;;22.50;10.60;;;5.20;61.50;;;;;;5062974;28;20029;-61
2023/03/06 02:14:25;;;;;;;18.45;10.25;;;5.20;61.50;;;;;;5063120;28;20032;-62
2023/03/06 02:16:51;;;;;;;19.73;10.93;;;5.20;61.50;;;;;;5065148;28;20043;-61
2023/03/06 02:19:46;;;;;;;25.48;11.25;;;5.20;61.50;;;;;;5058249;28;20033;-63
2023/03/06 02:22:12;;;;;;;24.40;10.20;;;5.20;61.60;;;;;;5059712;28;20032;-63
2023/03/06 02:24:41;;;;;;;20.52;10.65;;;5.20;61.40;;;;;;5062832;28;20067;-63
2023/03/06 02:27:11;;;;;;;18.35;10.88;;;5.20;61.50;;;;;;5060951;28;20070;-63
2023/03/06 02:29:37;;;;;;;22.80;10.98;;;5.20;61.50;;;;;;5058232;28;20104;-63
2023/03/06 02:32:03;;;;;;;22.83;11.80;;;5.20;61.50;;;;;;5060847;28;20042;-63
2023/03/06 02:34:29;;;;;;;24.45;11.63;;;5.20;61.60;;;;;;5057578;28;20060;-63
2023/03/06 02:37:01;;;;;;;23.20;11.13;;;5.20;61.70;;;;;;5066927;28;20029;-63
2023/03/06 02:39:35;;;;;;;23.33;10.80;;;5.20;61.70;;;;;;5051155;28;20029;-63
2023/03/06 02:42:01;;;;;;;26.05;10.98;;;5.10;61.60;;;;;;5064502;28;20066;-62
2023/03/06 02:44:27;;;;;;;19.92;10.48;;;5.20;61.60;;;;;;5067617;28;20530;-63
2023/03/06 02:46:53;;;;;;;23.30;12.13;;;5.10;61.60;;;;;;5067818;28;20033;-62
2023/03/06 02:49:18;;;;;;;19.67;11.07;;;5.10;61.70;;;;;;5055864;28;20040;-62
2023/03/06 02:51:44;;;;;;;21.48;11.65;;;5.10;61.90;;;;;;5067788;28;20067;-61
2023/03/06 02:54:10;;;;;;;24.13;11.40;;;5.10;62.00;;;;;;5059783;28;20073;-62
2023/03/06 02:56:36;;;;;;;25.60;11.38;;;5.10;62.10;;;;;;5068112;28;20033;-61
2023/03/06 02:59:01;;;;;;;23.60;11.68;;;5.10;62.10;;;;;;5064570;28;20113;-63
2023/03/06 03:01:27;;;;;;;22.48;10.80;;;5.10;62.10;;;;;;5060425;28;20031;-63
2023/03/06 03:03:52;;;;;;;21.70;12.18;;;5.10;62.20;;;;;;5070231;28;20037;-63
2023/03/06 03:06:18;;;;;;;23.45;12.02;;;5.10;62.20;;;;;;5057744;28;20025;-62
2023/03/06 03:08:44;;;;;;;26.77;11.68;;;5.10;62.20;;;;;;5064413;28;20081;-63
2023/03/06 03:11:11;;;;;;;25.33;12.23;;;5.10;62.30;;;;;;5062688;28;20052;-63
2023/03/06 03:13:36;;;;;;;24.80;11.95;;;5.10;62.30;;;;;;5053928;28;20040;-63
2023/03/06 03:16:07;;;;;;;23.30;11.52;;;5.10;62.20;;;;;;5049773;28;20427;-63
2023/03/06 03:18:33;;;;;;;25.05;11.75;;;5.10;62.20;;;;;;5063947;28;20031;-63
2023/03/06 03:20:59;;;;;;;21.98;11.77;;;5.10;62.10;;;;;;5061206;28;20029;-63
2023/03/06 03:23:26;;;;;;;27.27;11.85;;;5.10;62.10;;;;;;5066245;28;20024;-62
2023/03/06 03:25:52;;;;;;;26.50;11.07;;;5.10;62.10;;;;;;5058550;28;20495;-63
2023/03/06 03:28:18;;;;;;;22.58;11.43;;;5.10;62.10;;;;;;5066282;28;20032;-63
2023/03/06 03:30:44;;;;;;;25.30;12.27;;;5.10;62.20;;;;;;5054916;28;20033;-62
2023/03/06 03:33:10;;;;;;;23.35;11.88;;;5.10;62.20;;;;;;5057977;28;20053;-62
2023/03/06 03:35:36;;;;;;;25.70;12.25;;;5.10;62.20;;;;;;5079843;28;20368;-62
2023/03/06 03:38:02;;;;;;;25.13;12.68;;;5.10;62.20;;;;;;5070117;28;20044;-62
2023/03/06 03:40:28;;;;;;;23.13;12.00;;;5.10;62.80;;;;;;5067458;28;20032;-63
2023/03/06 03:42:54;;;;;;;27.02;12.35;;;5.10;62.10;;;;;;5062416;28;20060;-61
2023/03/06 03:45:19;;;;;;;25.17;12.52;;;5.10;62.20;;;;;;5077247;28;20372;-62
2023/03/06 03:47:45;;;;;;;24.33;11.60;;;5.10;62.20;;;;;;5066072;28;20482;-62
2023/03/06 03:50:11;;;;;;;21.15;11.43;;;5.10;62.30;;;;;;5063777;28;20025;-62
2023/03/06 03:52:37;;;;;;;25.15;12.57;;;5.00;62.30;;;;;;5065411;28;20029;-61
2023/03/06 03:55:03;;;;;;;19.98;11.45;;;5.00;62.40;;;;;;5068600;28;20021;-62
2023/03/06 03:57:29;;;;;;;21.88;12.07;;;5.00;62.50;;;;;;5067995;28;20025;-61
2023/03/06 03:59:55;;;;;;;24.90;12.48;;;5.00;62.70;;;;;;5066663;28;20027;-61
2023/03/06 04:02:21;;;;;;;20.20;11.60;;;5.00;62.60;;;;;;5063734;28;20048;-61
2023/03/06 04:04:47;;;;;;;23.13;12.07;;;5.00;62.70;;;;;;5063807;28;20029;-62
2023/03/06 04:07:14;;;;;;;26.88;12.93;;;5.00;62.60;;;;;;5067568;28;20024;-63
2023/03/06 04:09:39;;;;;;;23.77;13.27;;;5.00;62.70;;;;;;5067202;28;20013;-62
2023/03/06 04:12:05;;;;;;;24.25;12.02;;;5.00;62.80;;;;;;5069139;28;20029;-63
2023/03/06 04:14:31;;;;;;;24.98;12.30;;;5.00;62.90;;;;;;5060317;28;20040;-63
2023/03/06 04:16:58;;;;;;;25.55;12.45;;;5.00;62.80;;;;;;5067898;28;20036;-63
2023/03/06 04:19:23;;;;;;;28.52;13.15;;;5.00;62.90;;;;;;5064755;28;20025;-61
2023/03/06 04:21:49;;;;;;;23.92;12.50;;;5.00;62.90;;;;;;5062232;28;20093;-62
2023/03/06 04:24:15;;;;;;;25.73;12.70;;;5.00;62.90;;;;;;5063682;28;20021;-61
2023/03/06 04:26:40;;;;;;;24.33;12.98;;;5.00;62.90;;;;;;5067149;28;20029;-61
2023/03/06 04:29:06;;;;;;;28.65;13.73;;;5.00;62.90;;;;;;5065082;28;20678;-62
2023/03/06 04:31:32;;;;;;;25.70;13.45;;;5.00;63.00;;;;;;5067512;28;20029;-62
2023/03/06 04:33:57;;;;;;;31.20;13.57;;;5.00;63.00;;;;;;5069491;28;21467;-63
2023/03/06 04:36:30;;;;;;;30.90;14.20;;;5.00;63.10;;;;;;5066132;28;20028;-63
2023/03/06 04:38:55;;;;;;;24.85;13.98;;;5.00;63.20;;;;;;5063823;28;20021;-63
2023/03/06 04:41:22;;;;;;;26.90;13.55;;;5.00;63.10;;;;;;5067899;28;20055;-62
2023/03/06 04:43:47;;;;;;;26.98;13.13;;;5.00;63.10;;;;;;5068102;28;20029;-63
2023/03/06 04:46:13;;;;;;;29.52;14.40;;;5.00;63.10;;;;;;5062943;28;20027;-63
2023/03/06 04:48:39;;;;;;;31.98;14.00;;;5.00;62.90;;;;;;5073310;28;20071;-63
2023/03/06 04:51:04;;;;;;;27.08;13.20;;;5.00;62.90;;;;;;5064562;28;20033;-62
2023/03/06 04:53:31;;;;;;;28.38;14.35;;;5.00;62.90;;;;;;5071288;28;20040;-62
2023/03/06 04:55:57;;;;;;;31.45;15.35;;;5.00;63.00;;;;;;5059769;28;20025;-63
2023/03/06 04:58:24;;;;;;;29.77;14.05;;;4.90;63.00;;;;;;5065509;28;20024;-63
2023/03/06 05:00:50;;;;;;;30.52;14.88;;;5.00;63.00;;;;;;5065309;28;20036;-63
2023/03/06 05:03:15;;;;;;;30.52;15.20;;;5.00;63.00;;;;;;5068614;28;20024;-62
2023/03/06 05:05:41;;;;;;;25.88;13.73;;;5.00;63.10;;;;;;5074754;28;20025;-63
2023/03/06 05:08:10;;;;;;;24.70;14.32;;;5.00;63.10;;;;;;5068185;28;20088;-62
2023/03/06 05:10:35;;;;;;;30.23;13.45;;;4.90;63.10;;;;;;5060479;28;20029;-63
2023/03/06 05:13:01;;;;;;;23.05;12.63;;;4.90;63.10;;;;;;5066158;28;20037;-62
2023/03/06 05:15:27;;;;;;;25.73;12.32;;;5.00;63.20;;;;;;5067598;28;20028;-62
2023/03/06 05:17:52;;;;;;;21.92;11.88;;;4.90;63.20;;;;;;5066746;28;20029;-62
2023/03/06 05:20:18;;;;;;;23.77;11.75;;;4.90;63.20;;;;;;5071089;28;20020;-63
2023/03/06 05:22:44;;;;;;;27.40;13.02;;;5.00;63.30;;;;;;5066994;28;20546;-63
2023/03/06 05:25:10;;;;;;;27.27;14.00;;;4.90;63.20;;;;;;5062786;28;20031;-62
2023/03/06 05:27:37;;;;;;;26.02;13.30;;;4.90;63.40;;;;;;5063440;28;20025;-63
2023/03/06 05:30:03;;;;;;;29.73;15.98;;;4.90;63.40;;;;;;5059675;28;20031;-63
2023/03/06 05:32:28;;;;;;;32.28;16.15;;;4.90;63.40;;;;;;5063425;28;20056;-62
2023/03/06 05:34:54;;;;;;;31.75;15.38;;;4.90;63.50;;;;;;5071195;28;20032;-63
2023/03/06 05:37:21;;;;;;;30.55;15.40;;;4.90;63.50;;;;;;5066207;28;20028;-63
2023/03/06 05:39:48;;;;;;;28.85;15.30;;;4.90;63.50;;;;;;5070912;28;20020;-64
2023/03/06 05:42:13;;;;;;;27.33;14.88;;;4.90;63.50;;;;;;5067261;28;20024;-62
2023/03/06 05:44:40;;;;;;;30.23;15.32;;;4.90;63.40;;;;;;5066887;28;20039;-62
2023/03/06 05:47:07;;;;;;;35.90;17.02;;;4.90;63.40;;;;;;5061849;28;20087;-63
2023/03/06 05:49:34;;;;;;;31.05;15.40;;;4.90;63.40;;;;;;5070505;28;20028;-62
2023/03/06 05:52:02;;;;;;;30.88;15.88;;;4.90;63.40;;;;;;5068827;28;20017;-62
2023/03/06 05:54:29;;;;;;;31.80;16.00;;;4.90;63.40;;;;;;5060272;28;20029;-62
2023/03/06 05:56:56;;;;;;;34.78;15.93;;;4.90;63.40;;;;;;5065224;28;20325;-63
2023/03/06 05:59:22;;;;;;;34.08;16.52;;;4.90;63.40;;;;;;5066328;28;20031;-62
2023/03/06 06:01:48;;;;;;;29.50;15.73;;;4.90;63.40;;;;;;5069705;28;20497;-63
2023/03/06 06:04:14;;;;;;;26.73;14.60;;;4.90;63.40;;;;;;5061416;28;20032;-64
2023/03/06 06:06:40;;;;;;;36.97;14.98;;;4.90;63.50;;;;;;5058552;28;20029;-62
2023/03/06 06:09:05;;;;;;;31.85;14.40;;;4.90;63.60;;;;;;5064950;28;20029;-63
2023/03/06 06:11:31;;;;;;;26.77;14.43;;;4.90;63.60;;;;;;5068195;28;20053;-63
2023/03/06 06:13:56;;;;;;;28.63;15.13;;;4.90;63.70;;;;;;5065275;28;20060;-63
2023/03/06 06:16:22;;;;;;;26.25;14.15;;;4.90;64.40;;;;;;5066210;28;20024;-62
2023/03/06 06:18:48;;;;;;;31.35;14.40;;;5.00;63.70;;;;;;5069669;28;20028;-63
2023/03/06 06:21:13;;;;;;;27.92;14.23;;;5.00;63.70;;;;;;5067195;28;20032;-63
2023/03/06 06:23:40;;;;;;;24.08;13.45;;;5.00;63.70;;;;;;5069469;28;20028;-63
2023/03/06 06:26:07;;;;;;;27.55;14.40;;;5.00;63.50;;;;;;5061496;28;20029;-63
2023/03/06 06:28:33;;;;;;;29.63;13.90;;;4.90;63.30;;;;;;5064783;28;20033;-63
2023/03/06 06:30:59;;;;;;;32.83;15.15;;;5.00;63.30;;;;;;5065138;28;20025;-62
2023/03/06 06:33:25;;;;;;;28.73;14.77;;;4.90;63.20;;;;;;5062750;28;20090;-63
2023/03/06 06:35:51;;;;;;;27.92;14.55;;;5.00;63.30;;;;;;5058690;28;20037;-63
2023/03/06 06:38:17;;;;;;;28.27;13.88;;;5.00;63.30;;;;;;5063225;28;20021;-63
2023/03/06 06:40:43;;;;;;;26.60;14.05;;;5.00;63.40;;;;;;5065622;28;20024;-62
2023/03/06 06:43:08;;;;;;;30.20;14.93;;;5.00;63.30;;;;;;5061037;28;20028;-63
2023/03/06 06:45:34;;;;;;;27.25;15.05;;;5.00;63.20;;;;;;5064633;28;20017;-63
2023/03/06 06:48:00;;;;;;;28.30;14.65;;;5.00;63.30;;;;;;5076613;28;20036;-63
2023/03/06 06:50:25;;;;;;;29.90;14.50;;;5.00;63.30;;;;;;5069273;28;20418;-62
2023/03/06 06:52:51;;;;;;;30.73;15.07;;;5.10;63.30;;;;;;5066746;28;20029;-63
2023/03/06 06:55:17;;;;;;;31.98;14.85;;;5.10;63.30;;;;;;5059461;28;20089;-63
2023/03/06 06:57:42;;;;;;;32.00;15.15;;;5.10;63.20;;;;;;5051521;28;20025;-63
2023/03/06 07:00:11;;;;;;;31.98;15.30;;;5.10;63.40;;;;;;5068380;28;20025;-63
2023/03/06 07:02:37;;;;;;;28.25;14.35;;;5.10;63.30;;;;;;5058991;28;20036;-63
2023/03/06 07:05:03;;;;;;;32.20;15.07;;;5.10;63.20;;;;;;5061907;28;20057;-62
2023/03/06 07:07:29;;;;;;;25.67;13.32;;;5.20;63.10;;;;;;5061210;28;20029;-62
2023/03/06 07:09:54;;;;;;;30.95;14.75;;;5.20;63.10;;;;;;5061468;28;20035;-63
2023/03/06 07:12:20;;;;;;;29.48;14.18;;;5.20;63.00;;;;;;5069216;28;20095;-63
2023/03/06 07:14:47;;;;;;;28.83;13.50;;;5.30;62.90;;;;;;5077730;28;20054;-63
2023/03/06 07:17:12;;;;;;;28.05;14.07;;;5.30;62.80;;;;;;5056146;28;20021;-62
2023/03/06 07:19:38;;;;;;;28.65;13.70;;;5.40;62.90;;;;;;5067660;28;20033;-63
2023/03/06 07:22:04;;;;;;;24.45;13.32;;;5.40;62.80;;;;;;5064747;28;20039;-63
2023/03/06 07:24:30;;;;;;;24.67;12.68;;;5.50;62.60;;;;;;5071116;28;20035;-62
2023/03/06 07:26:55;;;;;;;28.95;14.05;;;5.50;62.40;;;;;;5062834;28;20036;-63
2023/03/06 07:29:21;;;;;;;27.17;13.68;;;5.50;62.20;;;;;;5066504;28;20033;-63
2023/03/06 07:31:46;;;;;;;36.83;15.82;;;5.60;62.10;;;;;;5067672;28;20111;-63
2023/03/06 07:34:14;;;;;;;42.22;15.25;;;5.60;62.00;;;;;;5071380;28;20398;-62
2023/03/06 07:36:40;;;;;;;30.85;13.88;;;5.60;61.90;;;;;;5067371;28;20047;-62
2023/03/06 07:39:07;;;;;;;26.05;13.27;;;5.60;61.90;;;;;;5064249;28;20017;-62
2023/03/06 07:41:33;;;;;;;29.80;13.60;;;5.70;62.00;;;;;;5064922;28;20036;-63
2023/03/06 07:43:58;;;;;;;23.83;13.15;;;5.70;61.70;;;;;;5065353;28;20017;-63
2023/03/06 07:46:24;;;;;;;25.35;13.40;;;5.70;61.50;;;;;;5067737;28;20033;-63
2023/03/06 07:48:49;;;;;;;25.40;12.73;;;5.70;61.50;;;;;;5063876;28;20033;-63
2023/03/06 07:51:18;;;;;;;24.95;12.40;;;5.70;61.40;;;;;;5061978;28;20458;-63
2023/03/06 07:53:44;;;;;;;28.88;12.68;;;5.70;62.00;;;;;;5067184;28;20096;-63
2023/03/06 07:56:10;;;;;;;25.50;12.98;;;5.70;61.30;;;;;;5064128;28;20033;-63
2023/03/06 07:58:38;;;;;;;24.88;12.90;;;5.70;61.30;;;;;;5066520;28;20025;-63
2023/03/06 08:01:09;;;;;;;18.75;11.32;;;5.70;61.30;;;;;;5068666;28;20070;-64
2023/03/06 08:03:36;;;;;;;20.63;11.52;;;5.70;61.20;;;;;;5061814;28;20028;-63
2023/03/06 08:06:10;;;;;;;24.05;12.95;;;5.70;61.30;;;;;;5063073;28;20029;-63
2023/03/06 08:08:38;;;;;;;22.13;12.70;;;5.70;61.10;;;;;;5063463;28;20063;-63
2023/03/06 08:11:04;;;;;;;23.70;12.57;;;5.70;61.00;;;;;;5067041;28;20021;-63
2023/03/06 08:13:30;;;;;;;25.60;13.07;;;5.70;60.90;;;;;;5059592;28;20492;-63
2023/03/06 08:15:55;;;;;;;23.77;12.88;;;5.70;60.90;;;;;;5058864;28;20036;-63
2023/03/06 08:18:21;;;;;;;27.67;13.48;;;5.70;60.90;;;;;;5065924;28;20037;-63
2023/03/06 08:20:47;;;;;;;25.33;13.65;;;5.70;61.00;;;;;;5070295;28;20976;-63
2023/03/06 08:23:12;;;;;;;25.35;12.52;;;5.70;61.10;;;;;;5056395;28;20049;-63
2023/03/06 08:25:38;;;;;;;25.60;12.23;;;5.70;61.20;;;;;;5062636;28;20025;-62
2023/03/06 08:28:04;;;;;;;26.05;12.20;;;5.70;61.00;;;;;;5066809;28;20480;-63
2023/03/06 08:30:30;;;;;;;19.25;11.32;;;5.70;60.80;;;;;;5062797;28;20029;-64
2023/03/06 08:32:55;;;;;;;17.98;10.55;;;5.70;60.80;;;;;;5064680;28;20048;-65
2023/03/06 08:35:21;;;;;;;21.88;10.85;;;5.70;60.70;;;;;;5062594;28;20025;-63
2023/03/06 08:37:47;;;;;;;21.90;10.88;;;5.70;60.50;;;;;;5069548;28;20037;-62
2023/03/06 08:40:12;;;;;;;18.70;10.85;;;5.70;60.40;;;;;;4966504;28;20029;-62
2023/03/06 08:42:38;;;;;;;23.13;12.10;;;5.70;60.30;;;;;;5081324;28;20033;-63
2023/03/06 08:45:05;;;;;;;19.42;10.57;;;5.70;60.20;;;;;;5061880;28;20496;-62
2023/03/06 08:47:31;;;;;;;17.85;10.20;;;5.70;60.10;;;;;;5065689;28;20028;-63
2023/03/06 08:49:57;;;;;;;17.45;9.13;;;5.70;60.20;;;;;;5073568;28;20021;-62
2023/03/06 08:52:23;;;;;;;16.45;9.57;;;5.70;60.20;;;;;;5063978;28;20056;-63
2023/03/06 08:54:48;;;;;;;19.48;10.63;;;5.70;60.10;;;;;;5064324;28;20037;-61
2023/03/06 08:57:14;;;;;;;15.38;8.77;;;5.70;60.10;;;;;;5066380;28;20031;-61
2023/03/06 08:59:41;;;;;;;16.33;9.50;;;5.70;60.20;;;;;;5068289;28;20029;-62
2023/03/06 09:02:10;;;;;;;14.48;8.63;;;5.70;60.20;;;;;;5066492;28;20021;-63
2023/03/06 09:04:36;;;;;;;16.15;9.07;;;5.70;60.10;;;;;;5065544;28;20064;-61
2023/03/06 09:07:02;;;;;;;15.13;9.40;;;5.70;60.00;;;;;;5055575;28;20033;-65
2023/03/06 09:09:28;;;;;;;18.23;9.07;;;5.70;60.00;;;;;;5068722;28;20039;-64
2023/03/06 09:11:53;;;;;;;16.77;9.20;;;5.70;60.00;;;;;;5056889;28;20025;-63
2023/03/06 09:14:19;;;;;;;15.98;9.05;;;5.70;60.00;;;;;;5059432;28;20040;-63
2023/03/06 09:16:45;;;;;;;16.48;8.85;;;5.70;60.00;;;;;;5067833;28;20080;-63
2023/03/06 09:19:10;;;;;;;20.80;10.35;;;5.70;59.80;;;;;;5071278;28;20057;-63
2023/03/06 09:21:36;;;;;;;16.98;9.45;;;5.70;59.60;;;;;;5067660;28;20027;-63
2023/03/06 09:24:02;;;;;;;14.32;8.32;;;5.70;59.60;;;;;;5055522;28;20026;-63
2023/03/06 09:26:28;;;;;;;15.57;8.98;;;5.60;59.70;;;;;;5063041;28;20031;-63
2023/03/06 09:28:53;;;;;;;15.45;8.55;;;5.60;59.90;;;;;;5064198;28;20021;-63
2023/03/06 09:31:19;;;;;;;14.55;8.75;;;5.60;60.10;;;;;;5065387;28;20021;-63
2023/03/06 09:33:47;;;;;;;14.38;9.02;;;5.60;60.20;;;;;;5062011;28;20060;-63
2023/03/06 09:36:19;;;;;;;17.33;8.82;;;5.60;60.30;;;;;;5065899;28;20044;-64
2023/03/06 09:38:47;;;;;;;15.73;9.13;;;5.60;60.50;;;;;;5078604;28;20037;-63
2023/03/06 09:41:27;;;;;;;14.35;8.75;;;5.60;60.70;;;;;;5071047;28;20021;-63
2023/03/06 09:44:03;;;;;;;15.20;7.85;;;5.70;60.80;;;;;;5062022;28;20054;-63
2023/03/06 09:46:56;;;;;;;16.65;9.57;;;5.70;61.40;;;;;;5061107;28;20484;-63
2023/03/06 09:49:50;;;;;;;17.65;8.48;;;5.70;60.60;;;;;;5067992;28;20024;-62
2023/03/06 09:52:34;;;;;;;16.63;8.40;;;5.70;60.60;;;;;;5066319;28;20039;-62
2023/03/06 09:55:14;;;;;;;17.43;8.03;;;5.70;60.40;;;;;;5065981;28;20086;-63
2023/03/06 09:58:05;;;;;;;20.40;7.53;;;5.70;60.40;;;;;;5067062;28;20354;-62
2023/03/06 10:00:38;;;;;;;10.63;7.20;;;5.70;60.50;;;;;;5057217;28;20021;-62
2023/03/06 10:03:04;;;;;;;14.75;7.60;;;5.70;60.20;;;;;;5066921;28;20024;-63
2023/03/06 10:05:40;;;;;;;12.82;6.40;;;5.70;60.30;;;;;;5063540;28;20024;-63
2023/03/06 10:08:20;;;;;;;14.15;6.30;;;5.70;60.40;;;;;;5069851;28;20033;-63
2023/03/06 10:11:05;;;;;;;12.70;6.90;;;5.70;60.70;;;;;;5060469;28;20032;-63
2023/03/06 10:13:38;;;;;;;14.07;6.90;;;5.80;61.00;;;;;;5053066;28;20132;-63
2023/03/06 10:16:25;;;;;;;13.13;6.68;;;5.80;60.90;;;;;;5060649;28;20027;-63
2023/03/06 10:18:51;;;;;;;13.02;7.60;;;5.90;60.80;;;;;;5061049;28;20032;-63
2023/03/06 10:21:49;;;;;;;10.73;6.90;;;6.00;61.00;;;;;;5062801;28;20029;-62
2023/03/06 10:24:46;;;;;;;8.00;5.35;;;6.10;61.30;;;;;;5057665;28;20037;-63
2023/03/06 10:27:15;;;;;;;10.90;6.15;;;6.20;60.80;;;;;;5048330;28;20120;-61
2023/03/06 10:30:07;;;;;;;10.65;6.43;;;6.40;60.70;;;;;;5061452;28;20029;-62
2023/03/06 10:32:38;;;;;;;9.07;6.22;;;6.40;59.90;;;;;;5064376;28;20075;-62
2023/03/06 10:35:16;;;;;;;10.70;6.47;;;6.50;59.60;;;;;;5070664;28;20037;-63
2023/03/06 10:37:41;;;;;;;9.60;5.50;;;6.60;59.80;;;;;;5061974;28;20029;-62
2023/03/06 10:40:16;;;;;;;10.25;6.65;;;6.70;60.10;;;;;;5069378;28;20020;-63
2023/03/06 10:42:41;;;;;;;;;;;6.70;59.30;;;;;;5063818;28;20021;-61
2023/03/06 10:45:12;;;;;;;11.25;6.22;;;6.80;59.30;;;;;;5066989;28;20373;-62
2023/03/06 10:47:39;;;;;;;18.52;6.78;;;6.90;59.30;;;;;;5057306;28;20025;-61
2023/03/06 10:50:19;;;;;;;10.43;5.63;;;6.90;59.30;;;;;;5062909;28;20124;-61
2023/03/06 10:52:56;;;;;;;9.48;6.45;;;7.10;59.20;;;;;;5054378;28;20029;-61
2023/03/06 10:55:26;;;;;;;13.80;6.75;;;7.20;59.20;;;;;;5052152;28;20038;-63
2023/03/06 10:57:52;;;;;;;9.85;6.40;;;7.30;58.20;;;;;;5056386;28;20400;-62
2023/03/06 11:00:32;;;;;;;9.27;6.18;;;7.40;58.60;;;;;;5073110;28;20096;-62
2023/03/06 11:03:20;;;;;;;13.07;6.00;;;7.60;58.40;;;;;;5062532;28;20392;-62
2023/03/06 11:06:03;;;;;;;9.15;6.25;;;7.70;57.80;;;;;;5055860;28;20029;-62
2023/03/06 11:08:29;;;;;;;10.70;6.22;;;7.80;58.00;;;;;;5061765;28;20025;-62
2023/03/06 11:11:02;;;;;;;13.25;6.97;;;7.90;57.80;;;;;;5066634;28;20055;-62
2023/03/06 11:13:31;;;;;;;10.60;6.13;;;8.00;57.30;;;;;;5070703;28;20049;-63
2023/03/06 11:16:04;;;;;;;10.13;6.82;;;8.10;56.80;;;;;;5065063;28;20042;-61
2023/03/06 11:18:40;;;;;;;9.10;5.93;;;8.10;56.80;;;;;;5060516;28;20048;-63
2023/03/06 11:21:34;;;;;;;13.35;6.55;;;8.10;56.70;;;;;;5058531;28;20677;-63
2023/03/06 11:24:07;;;;;;;10.50;6.47;;;8.20;56.30;;;;;;5057721;28;20036;-62
2023/03/06 11:26:55;;;;;;;10.98;6.53;;;8.30;56.40;;;;;;5061286;28;20044;-61
2023/03/06 11:29:36;;;;;;;8.65;6.10;;;8.40;54.50;;;;;;5058529;28;20029;-61
2023/03/06 11:32:05;;;;;;;9.07;6.57;;;8.40;55.50;;;;;;5061082;28;20067;-62
2023/03/06 11:34:46;;;;;;;11.65;6.78;;;8.40;55.50;;;;;;5070305;28;20063;-62
2023/03/06 11:37:29;;;;;;;10.20;6.35;;;8.40;54.90;;;;;;5054243;28;20052;-62
2023/03/06 11:40:14;;;;;;;11.02;7.03;;;8.20;55.00;;;;;;5057677;28;20561;-63
2023/03/06 11:42:51;;;;;;;10.88;6.05;;;8.20;54.70;;;;;;5058180;28;20380;-62
2023/03/06 11:45:41;;;;;;;16.13;6.90;;;8.10;55.30;;;;;;5064885;28;20037;-61
2023/03/06 11:48:12;;;;;;;13.38;6.32;;;8.00;55.10;;;;;;5064448;28;20088;-63
2023/03/06 11:50:42;;;;;;;11.23;6.72;;;7.90;55.10;;;;;;5064272;28;20448;-62
2023/03/06 11:53:17;;;;;;;12.85;7.07;;;7.80;55.40;;;;;;5065536;28;20043;-62
2023/03/06 11:56:00;;;;;;;11.52;7.32;;;7.70;55.20;;;;;;5063764;28;20029;-62
2023/03/06 11:58:58;;;;;;;12.48;7.47;;;7.50;55.50;;;;;;5066277;28;20056;-63
2023/03/06 12:01:46;;;;;;;12.85;6.85;;;7.40;55.60;;;;;;5073209;28;20041;-63
2023/03/06 12:04:23;;;;;;;11.88;7.30;;;7.30;55.90;;;;;;5070183;28;20029;-63
2023/03/06 12:07:00;;;;;;;11.82;6.85;;;7.20;56.20;;;;;;5061436;28;20021;-62
2023/03/06 12:09:32;;;;;;;11.13;6.55;;;7.20;56.20;;;;;;5070124;28;20088;-62
2023/03/06 12:12:25;;;;;;;12.13;7.45;;;7.10;56.50;;;;;;5066361;28;20081;-62
2023/03/06 12:15:18;;;;;;;13.55;7.47;;;7.00;56.50;;;;;;5063941;28;20040;-61
2023/03/06 12:17:53;;;;;;;13.23;8.18;;;7.00;56.70;;;;;;5068353;28;20155;-62
2023/03/06 12:20:27;;;;;;;;;;;6.90;56.60;;;;;;5066557;28;20076;-61
2023/03/06 12:23:17;;;;;;;9.43;6.45;;;6.90;56.80;;;;;;5064712;28;20352;-61
2023/03/06 12:25:47;;;;;;;11.32;7.05;;;6.90;57.10;;;;;;5075453;28;20017;-62
2023/03/06 12:28:25;;;;;;;12.57;7.70;;;6.90;57.40;;;;;;5059581;28;20025;-63
2023/03/06 12:31:28;;;;;;;14.40;7.78;;;6.80;57.50;;;;;;5062131;28;20066;-63
2023/03/06 12:34:03;;;;;;;13.88;9.02;;;6.80;57.50;;;;;;5066720;28;20041;-63
2023/03/06 12:36:58;;;;;;;14.43;7.97;;;6.80;57.60;;;;;;5076882;28;20032;-62
2023/03/06 12:39:45;;;;;;;18.65;9.27;;;6.80;57.90;;;;;;5064253;28;20025;-63
2023/03/06 12:42:10;;;;;;;25.58;9.13;;;6.70;58.00;;;;;;5057510;28;20539;-63
2023/03/06 12:45:12;;;;;;;13.27;8.80;;;6.70;58.10;;;;;;5065587;28;20057;-62
2023/03/06 12:47:43;;;;;;;18.73;9.73;;;6.70;58.30;;;;;;5061353;28;20099;-63
2023/03/06 12:50:23;;;;;;;14.25;8.90;;;6.70;58.30;;;;;;5063042;28;20056;-63
2023/03/06 12:52:50;;;;;;;17.88;9.15;;;6.70;58.40;;;;;;5073174;28;20480;-63